Austin Reinauer — WCX8055 — position and weather

sailwx.info

Track history (hours):
 
Tides and Currents Weather Stations Pressure Air Temp Water Temp Dewpoint Dewpoint Depression Visibility Wind Speed Wind Dir Waves Ship Positions

Austin Reinauer

Owner: REINAUER TRANSPORTATION CO, LP, STATEN ISLAND, NY. More information available from US FCC via Universal Licensing System and Coast Guard Vessel Documentation Center.

Last reported at 2015-Jan-29 23:17 UTC. Time now 2015-Jan-30 00:30 UTC.
Position N 40°42' W 074°08'.

Length 33 m; draft 6.7 m.

Type: Ship (hazmat cat B). MMSI: 366739920.

Date/timePositionNaut miles runAvg speedWind from/ knotsBaromVisibWave heightAir tempDewpointWater temp
2015-Jan-29 23:17N 40°42' W 074°08'0 0.0
2015-Jan-29 22:06N 40°42' W 074°08'3 5.2
2015-Jan-29 21:29N 40°38' W 074°08'0 0.0
2015-Jan-29 20:29N 40°38' W 074°08'0 0.0
2015-Jan-29 19:29N 40°38' W 074°08'0 0.0
2015-Jan-29 18:29N 40°38' W 074°08'0 0.1
2015-Jan-29 17:31N 40°39' W 074°08'3 1.4
2015-Jan-29 15:20N 40°42' W 074°08'0 0.0
2015-Jan-29 14:26N 40°42' W 074°08'0 0.0
2015-Jan-29 13:32N 40°42' W 074°08'0 0.0
2015-Jan-29 07:32N 40°42' W 074°08'0 0.0
2015-Jan-29 04:23N 40°42' W 074°08'3 3.6
2015-Jan-29 03:33N 40°39' W 074°07'4 4.0
2015-Jan-29 02:33N 40°37' W 074°03'2 1.9
2015-Jan-29 01:33N 40°35' W 074°02'5 4.9
2015-Jan-29 00:33N 40°31' W 073°59'7 5.6
2015-Jan-28 23:21N 40°25' W 073°54'7 6.9
2015-Jan-28 22:19N 40°18' W 073°55'  
2015-Jan-20 09:11N 39°28' W 074°10'7 9.8
2015-Jan-20 08:31N 39°34' W 074°06'9 9.8
2015-Jan-20 07:33N 39°42' W 073°60'10 9.6
2015-Jan-20 06:33N 39°51' W 073°58'1010.3
2015-Jan-20 05:33N 40°02' W 073°58'1010.0
2015-Jan-20 04:31N 40°12' W 073°57'1210.0
2015-Jan-20 03:20N 40°24' W 073°54'9 9.0
2015-Jan-20 02:19N 40°31' W 074°01'810.2
2015-Jan-20 01:33N 40°39' W 074°04'  
Track history (hours):
 
Tides and Currents Weather Stations Pressure Air Temp Water Temp Dewpoint Dewpoint Depression Visibility Wind Speed Wind Dir Waves Ship Positions

Austin Reinauer

Owner: REINAUER TRANSPORTATION CO, LP, STATEN ISLAND, NY. More information available from US FCC via Universal Licensing System and Coast Guard Vessel Documentation Center.

Last reported at 2015-Jan-29 23:17 UTC. Time now 2015-Jan-30 00:30 UTC.
Position N 40°42' W 074°08'.

Length 33 m; draft 6.7 m.

Type: Ship (hazmat cat B). MMSI: 366739920.

Date/timePositionNaut miles runAvg speedWind from/ knotsBaromVisibWave heightAir tempDewpointWater temp
2015-Jan-29 23:17N 40°42' W 074°08'0 0.0
2015-Jan-29 22:06N 40°42' W 074°08'3 5.2
2015-Jan-29 21:29N 40°38' W 074°08'0 0.0
2015-Jan-29 20:29N 40°38' W 074°08'0 0.0
2015-Jan-29 19:29N 40°38' W 074°08'0 0.0
2015-Jan-29 18:29N 40°38' W 074°08'0 0.1
2015-Jan-29 17:31N 40°39' W 074°08'3 1.4
2015-Jan-29 15:20N 40°42' W 074°08'0 0.0
2015-Jan-29 14:26N 40°42' W 074°08'0 0.0
2015-Jan-29 13:32N 40°42' W 074°08'0 0.0
2015-Jan-29 07:32N 40°42' W 074°08'0 0.0
2015-Jan-29 04:23N 40°42' W 074°08'3 3.6
2015-Jan-29 03:33N 40°39' W 074°07'4 4.0
2015-Jan-29 02:33N 40°37' W 074°03'2 1.9
2015-Jan-29 01:33N 40°35' W 074°02'5 4.9
2015-Jan-29 00:33N 40°31' W 073°59'7 5.6
2015-Jan-28 23:21N 40°25' W 073°54'7 6.9
2015-Jan-28 22:19N 40°18' W 073°55'  
2015-Jan-20 09:11N 39°28' W 074°10'7 9.8
2015-Jan-20 08:31N 39°34' W 074°06'9 9.8
2015-Jan-20 07:33N 39°42' W 073°60'10 9.6
2015-Jan-20 06:33N 39°51' W 073°58'1010.3
2015-Jan-20 05:33N 40°02' W 073°58'1010.0
2015-Jan-20 04:31N 40°12' W 073°57'1210.0
2015-Jan-20 03:20N 40°24' W 073°54'9 9.0
2015-Jan-20 02:19N 40°31' W 074°01'810.2
2015-Jan-20 01:33N 40°39' W 074°04'  

Dump ship's entire track history